sensor_id;sensor_type;location;lat;lon;timestamp;pressure;altitude;pressure_sealevel;temperature;humidity
35778;BME280;21899;42.662;23.316;2023-11-21T00:02:11;94202.59;;;7.80;88.49
35778;BME280;21899;42.662;23.316;2023-11-21T00:04:37;94204.50;;;7.83;88.88
35778;BME280;21899;42.662;23.316;2023-11-21T00:07:03;94204.84;;;7.78;88.53
35778;BME280;21899;42.662;23.316;2023-11-21T00:09:28;94204.88;;;7.82;88.37
35778;BME280;21899;42.662;23.316;2023-11-21T00:11:54;94207.13;;;7.73;87.94
35778;BME280;21899;42.662;23.316;2023-11-21T00:14:19;94205.16;;;7.66;88.49
35778;BME280;21899;42.662;23.316;2023-11-21T00:16:45;94208.63;;;7.74;87.93
35778;BME280;21899;42.662;23.316;2023-11-21T00:19:11;94213.25;;;7.80;87.44
35778;BME280;21899;42.662;23.316;2023-11-21T00:21:37;94198.72;;;7.71;87.67
35778;BME280;21899;42.662;23.316;2023-11-21T00:24:02;94200.38;;;7.89;87.41
35778;BME280;21899;42.662;23.316;2023-11-21T00:26:28;94189.31;;;7.87;87.07
35778;BME280;21899;42.662;23.316;2023-11-21T00:28:54;94205.75;;;7.97;87.01
35778;BME280;21899;42.662;23.316;2023-11-21T00:31:19;94200.03;;;7.94;87.13
35778;BME280;21899;42.662;23.316;2023-11-21T00:33:45;94193.56;;;7.95;86.06
35778;BME280;21899;42.662;23.316;2023-11-21T00:36:10;94197.00;;;7.96;86.64
35778;BME280;21899;42.662;23.316;2023-11-21T00:38:36;94190.13;;;7.91;86.41
35778;BME280;21899;42.662;23.316;2023-11-21T00:41:05;94197.78;;;8.04;85.67
35778;BME280;21899;42.662;23.316;2023-11-21T00:43:31;94192.84;;;8.06;85.16
35778;BME280;21899;42.662;23.316;2023-11-21T00:45:58;94194.38;;;8.07;84.99
35778;BME280;21899;42.662;23.316;2023-11-21T00:48:24;94199.66;;;7.96;86.42
35778;BME280;21899;42.662;23.316;2023-11-21T00:50:49;94198.84;;;7.92;86.25
35778;BME280;21899;42.662;23.316;2023-11-21T00:53:15;94191.13;;;7.73;86.74
35778;BME280;21899;42.662;23.316;2023-11-21T00:55:41;94200.28;;;7.79;86.89
35778;BME280;21899;42.662;23.316;2023-11-21T00:58:06;94186.53;;;7.73;87.08
35778;BME280;21899;42.662;23.316;2023-11-21T01:00:33;94184.28;;;7.75;86.59
35778;BME280;21899;42.662;23.316;2023-11-21T01:02:59;94187.59;;;7.58;87.92
35778;BME280;21899;42.662;23.316;2023-11-21T01:05:25;94179.63;;;7.58;87.23
35778;BME280;21899;42.662;23.316;2023-11-21T01:07:50;94185.66;;;7.52;88.10
35778;BME280;21899;42.662;23.316;2023-11-21T01:10:15;94184.88;;;7.51;88.20
35778;BME280;21899;42.662;23.316;2023-11-21T01:12:42;94171.91;;;7.46;88.47
35778;BME280;21899;42.662;23.316;2023-11-21T01:15:08;94173.63;;;7.25;89.83
35778;BME280;21899;42.662;23.316;2023-11-21T01:17:34;94175.97;;;7.30;90.81
35778;BME280;21899;42.662;23.316;2023-11-21T01:20:00;94170.34;;;7.42;90.06
35778;BME280;21899;42.662;23.316;2023-11-21T01:22:26;94170.66;;;7.33;90.25
35778;BME280;21899;42.662;23.316;2023-11-21T01:24:54;94189.31;;;7.33;90.10
35778;BME280;21899;42.662;23.316;2023-11-21T01:27:21;94184.72;;;7.34;90.01
35778;BME280;21899;42.662;23.316;2023-11-21T01:29:46;94184.72;;;7.34;89.46
35778;BME280;21899;42.662;23.316;2023-11-21T01:32:12;94181.72;;;7.35;89.06
35778;BME280;21899;42.662;23.316;2023-11-21T01:34:37;94169.44;;;7.24;88.77
35778;BME280;21899;42.662;23.316;2023-11-21T01:37:03;94183.56;;;7.31;89.49
35778;BME280;21899;42.662;23.316;2023-11-21T01:39:30;94175.94;;;7.26;89.65
35778;BME280;21899;42.662;23.316;2023-11-21T01:41:57;94178.84;;;7.14;90.11
35778;BME280;21899;42.662;23.316;2023-11-21T01:44:24;94181.47;;;7.07;90.52
35778;BME280;21899;42.662;23.316;2023-11-21T01:46:50;94183.00;;;7.08;90.49
35778;BME280;21899;42.662;23.316;2023-11-21T01:49:16;94182.84;;;6.94;90.97
35778;BME280;21899;42.662;23.316;2023-11-21T01:51:45;94171.00;;;6.88;92.00
35778;BME280;21899;42.662;23.316;2023-11-21T01:54:12;94162.16;;;6.77;92.67
35778;BME280;21899;42.662;23.316;2023-11-21T01:56:38;94158.31;;;6.75;93.18
35778;BME280;21899;42.662;23.316;2023-11-21T01:59:04;94173.72;;;6.92;92.47
35778;BME280;21899;42.662;23.316;2023-11-21T02:01:33;94184.34;;;6.92;92.38
35778;BME280;21899;42.662;23.316;2023-11-21T02:03:58;94173.72;;;6.92;92.25
35778;BME280;21899;42.662;23.316;2023-11-21T02:06:23;94166.16;;;6.97;92.01
35778;BME280;21899;42.662;23.316;2023-11-21T02:08:49;94171.81;;;6.92;92.47
35778;BME280;21899;42.662;23.316;2023-11-21T02:11:15;94176.41;;;6.95;92.34
35778;BME280;21899;42.662;23.316;2023-11-21T02:13:41;94172.16;;;6.87;92.82
35778;BME280;21899;42.662;23.316;2023-11-21T02:16:11;94180.91;;;6.91;92.19
35778;BME280;21899;42.662;23.316;2023-11-21T02:18:38;94174.53;;;6.96;92.19
35778;BME280;21899;42.662;23.316;2023-11-21T02:21:04;94167.72;;;7.02;92.84
35778;BME280;21899;42.662;23.316;2023-11-21T02:23:30;94178.03;;;7.07;92.69
35778;BME280;21899;42.662;23.316;2023-11-21T02:25:56;94171.53;;;7.04;92.24
35778;BME280;21899;42.662;23.316;2023-11-21T02:28:21;94159.03;;;7.08;91.76
35778;BME280;21899;42.662;23.316;2023-11-21T02:30:51;94167.41;;;7.07;91.87
35778;BME280;21899;42.662;23.316;2023-11-21T02:33:21;94155.56;;;7.01;91.39
35778;BME280;21899;42.662;23.316;2023-11-21T02:35:47;94163.97;;;7.06;91.57
35778;BME280;21899;42.662;23.316;2023-11-21T02:38:12;94165.13;;;7.09;91.11
35778;BME280;21899;42.662;23.316;2023-11-21T02:40:39;94166.22;;;7.04;90.69
35778;BME280;21899;42.662;23.316;2023-11-21T02:43:04;94162.41;;;7.02;91.00
35778;BME280;21899;42.662;23.316;2023-11-21T02:45:31;94164.00;;;7.10;90.54
35778;BME280;21899;42.662;23.316;2023-11-21T02:47:57;94163.22;;;7.09;90.57
35778;BME280;21899;42.662;23.316;2023-11-21T02:50:22;94168.16;;;7.07;90.77
35778;BME280;21899;42.662;23.316;2023-11-21T02:52:48;94157.78;;;6.95;90.64
35778;BME280;21899;42.662;23.316;2023-11-21T02:55:14;94162.78;;;7.00;90.74
35778;BME280;21899;42.662;23.316;2023-11-21T02:57:39;94163.44;;;6.90;91.22
35778;BME280;21899;42.662;23.316;2023-11-21T03:00:05;94162.25;;;6.88;90.90
35778;BME280;21899;42.662;23.316;2023-11-21T03:02:33;94162.25;;;6.84;91.15
35778;BME280;21899;42.662;23.316;2023-11-21T03:05:02;94163.31;;;6.80;91.39
35778;BME280;21899;42.662;23.316;2023-11-21T03:07:27;94154.22;;;6.81;91.49
35778;BME280;21899;42.662;23.316;2023-11-21T03:09:53;94158.38;;;6.78;92.07
35778;BME280;21899;42.662;23.316;2023-11-21T03:12:18;94156.63;;;6.56;92.93
35778;BME280;21899;42.662;23.316;2023-11-21T03:14:45;94160.03;;;6.56;93.32
35778;BME280;21899;42.662;23.316;2023-11-21T03:17:10;94152.03;;;6.53;93.31
35778;BME280;21899;42.662;23.316;2023-11-21T03:19:36;94148.22;;;6.17;95.15
35778;BME280;21899;42.662;23.316;2023-11-21T03:22:02;94169.50;;;6.21;95.37
35778;BME280;21899;42.662;23.316;2023-11-21T03:24:29;94176.44;;;6.29;95.92
35778;BME280;21899;42.662;23.316;2023-11-21T03:26:54;94185.78;;;6.16;96.32
35778;BME280;21899;42.662;23.316;2023-11-21T03:29:20;94178.28;;;6.25;96.19
35778;BME280;21899;42.662;23.316;2023-11-21T03:31:46;94184.53;;;6.10;96.95
35778;BME280;21899;42.662;23.316;2023-11-21T03:34:16;94180.47;;;6.16;97.78
35778;BME280;21899;42.662;23.316;2023-11-21T03:36:41;94166.75;;;6.14;97.85
35778;BME280;21899;42.662;23.316;2023-11-21T03:39:07;94177.06;;;6.19;97.84
35778;BME280;21899;42.662;23.316;2023-11-21T03:41:32;94169.19;;;6.26;98.00
35778;BME280;21899;42.662;23.316;2023-11-21T03:43:59;94168.19;;;6.37;96.74
35778;BME280;21899;42.662;23.316;2023-11-21T03:46:24;94158.72;;;6.40;96.53
35778;BME280;21899;42.662;23.316;2023-11-21T03:48:50;94164.16;;;6.50;96.59
35778;BME280;21899;42.662;23.316;2023-11-21T03:51:16;94149.41;;;6.23;96.67
35778;BME280;21899;42.662;23.316;2023-11-21T03:53:41;94155.50;;;6.24;96.41
35778;BME280;21899;42.662;23.316;2023-11-21T03:56:07;94147.13;;;6.22;96.29
35778;BME280;21899;42.662;23.316;2023-11-21T03:58:32;94143.53;;;6.07;97.46
35778;BME280;21899;42.662;23.316;2023-11-21T04:00:58;94156.00;;;6.03;97.30
35778;BME280;21899;42.662;23.316;2023-11-21T04:03:23;94144.56;;;5.99;97.47
35778;BME280;21899;42.662;23.316;2023-11-21T04:05:49;94143.06;;;5.76;99.16
35778;BME280;21899;42.662;23.316;2023-11-21T04:08:14;94137.34;;;5.74;100.00
35778;BME280;21899;42.662;23.316;2023-11-21T04:10:39;94143.00;;;5.95;99.29
35778;BME280;21899;42.662;23.316;2023-11-21T04:13:05;94131.66;;;5.98;99.20
35778;BME280;21899;42.662;23.316;2023-11-21T04:15:32;94135.47;;;6.00;98.84
35778;BME280;21899;42.662;23.316;2023-11-21T04:17:57;94135.72;;;5.88;99.29
35778;BME280;21899;42.662;23.316;2023-11-21T04:20:25;94139.09;;;5.89;99.03
35778;BME280;21899;42.662;23.316;2023-11-21T04:22:51;94137.91;;;5.83;98.84
35778;BME280;21899;42.662;23.316;2023-11-21T04:25:17;94133.00;;;5.85;99.22
35778;BME280;21899;42.662;23.316;2023-11-21T04:27:43;94138.38;;;5.92;99.90
35778;BME280;21899;42.662;23.316;2023-11-21T04:30:10;94139.16;;;5.92;99.24
35778;BME280;21899;42.662;23.316;2023-11-21T04:32:36;94143.38;;;5.97;99.17
35778;BME280;21899;42.662;23.316;2023-11-21T04:35:01;94152.59;;;6.03;98.75
35778;BME280;21899;42.662;23.316;2023-11-21T04:37:27;94133.91;;;5.96;98.64
35778;BME280;21899;42.662;23.316;2023-11-21T04:39:52;94146.81;;;5.97;98.30
35778;BME280;21899;42.662;23.316;2023-11-21T04:42:18;94142.03;;;6.10;98.03
35778;BME280;21899;42.662;23.316;2023-11-21T04:44:43;94137.84;;;6.09;97.58
35778;BME280;21899;42.662;23.316;2023-11-21T04:47:09;94144.66;;;6.06;97.78
35778;BME280;21899;42.662;23.316;2023-11-21T04:49:35;94145.81;;;6.09;98.09
35778;BME280;21899;42.662;23.316;2023-11-21T04:52:00;94140.09;;;6.07;97.46
35778;BME280;21899;42.662;23.316;2023-11-21T04:54:26;94136.66;;;6.03;97.49
35778;BME280;21899;42.662;23.316;2023-11-21T04:56:52;94148.97;;;6.18;97.53
35778;BME280;21899;42.662;23.316;2023-11-21T04:59:18;94139.09;;;6.18;97.78
35778;BME280;21899;42.662;23.316;2023-11-21T05:01:43;94147.22;;;6.29;97.27
35778;BME280;21899;42.662;23.316;2023-11-21T05:04:09;94143.41;;;6.30;96.41
35778;BME280;21899;42.662;23.316;2023-11-21T05:06:34;94151.16;;;6.42;96.66
35778;BME280;21899;42.662;23.316;2023-11-21T05:09:00;94156.59;;;6.52;95.95
35778;BME280;21899;42.662;23.316;2023-11-21T05:11:26;94145.91;;;6.49;95.65
35778;BME280;21899;42.662;23.316;2023-11-21T05:13:52;94139.13;;;6.55;95.80
35778;BME280;21899;42.662;23.316;2023-11-21T05:16:19;94135.69;;;6.54;94.47
35778;BME280;21899;42.662;23.316;2023-11-21T05:18:46;94144.63;;;6.69;93.91
35778;BME280;21899;42.662;23.316;2023-11-21T05:21:11;94142.41;;;6.78;93.84
35778;BME280;21899;42.662;23.316;2023-11-21T05:23:37;94143.22;;;6.82;93.93
35778;BME280;21899;42.662;23.316;2023-11-21T05:26:02;94137.59;;;6.94;92.53
35778;BME280;21899;42.662;23.316;2023-11-21T05:28:28;94141.91;;;7.06;92.50
35778;BME280;21899;42.662;23.316;2023-11-21T05:30:53;94138.50;;;7.05;91.95
35778;BME280;21899;42.662;23.316;2023-11-21T05:33:20;94149.56;;;7.14;90.67
35778;BME280;21899;42.662;23.316;2023-11-21T05:35:45;94154.13;;;7.10;90.75
35778;BME280;21899;42.662;23.316;2023-11-21T05:38:12;94159.47;;;7.17;90.82
35778;BME280;21899;42.662;23.316;2023-11-21T05:40:37;94147.25;;;7.09;91.08
35778;BME280;21899;42.662;23.316;2023-11-21T05:43:02;94143.91;;;7.19;90.79
35778;BME280;21899;42.662;23.316;2023-11-21T05:45:28;94150.38;;;7.18;90.43
35778;BME280;21899;42.662;23.316;2023-11-21T05:47:55;94165.50;;;7.11;90.58
35778;BME280;21899;42.662;23.316;2023-11-21T05:50:20;94159.84;;;7.12;90.29
35778;BME280;21899;42.662;23.316;2023-11-21T05:52:47;94145.50;;;7.27;91.27
35778;BME280;21899;42.662;23.316;2023-11-21T05:55:13;94142.53;;;7.36;90.86
35778;BME280;21899;42.662;23.316;2023-11-21T05:57:40;94140.56;;;7.29;89.84
35778;BME280;21899;42.662;23.316;2023-11-21T06:00:08;94143.94;;;7.23;90.33
35778;BME280;21899;42.662;23.316;2023-11-21T06:02:40;94159.19;;;7.26;89.94
35778;BME280;21899;42.662;23.316;2023-11-21T06:05:07;94152.00;;;7.30;90.29
35778;BME280;21899;42.662;23.316;2023-11-21T06:07:33;94148.94;;;7.28;89.66
35778;BME280;21899;42.662;23.316;2023-11-21T06:09:59;94137.28;;;6.99;90.11
35778;BME280;21899;42.662;23.316;2023-11-21T06:12:24;94150.22;;;6.97;90.25
35778;BME280;21899;42.662;23.316;2023-11-21T06:14:50;94162.25;;;6.88;91.15
35778;BME280;21899;42.662;23.316;2023-11-21T06:17:16;94160.13;;;7.00;91.43
35778;BME280;21899;42.662;23.316;2023-11-21T06:19:43;94163.19;;;7.06;91.16
35778;BME280;21899;42.662;23.316;2023-11-21T06:22:11;94163.22;;;7.09;90.96
35778;BME280;21899;42.662;23.316;2023-11-21T06:24:36;94162.53;;;7.19;91.24
35778;BME280;21899;42.662;23.316;2023-11-21T06:27:03;94171.75;;;7.25;90.32
35778;BME280;21899;42.662;23.316;2023-11-21T06:29:30;94166.78;;;7.27;89.68
35778;BME280;21899;42.662;23.316;2023-11-21T06:31:55;94173.94;;;7.16;90.43
35778;BME280;21899;42.662;23.316;2023-11-21T06:34:21;94165.34;;;7.33;89.74
35778;BME280;21899;42.662;23.316;2023-11-21T06:36:47;94174.97;;;7.48;89.15
35778;BME280;21899;42.662;23.316;2023-11-21T06:39:12;94177.28;;;7.53;88.49
35778;BME280;21899;42.662;23.316;2023-11-21T06:41:40;94177.66;;;7.55;88.34
35778;BME280;21899;42.662;23.316;2023-11-21T06:44:05;94168.09;;;7.47;87.98
35778;BME280;21899;42.662;23.316;2023-11-21T06:46:31;94188.88;;;7.78;87.28
35778;BME280;21899;42.662;23.316;2023-11-21T06:48:56;94181.22;;;7.73;86.24
35778;BME280;21899;42.662;23.316;2023-11-21T06:51:22;94189.41;;;8.02;85.99
35778;BME280;21899;42.662;23.316;2023-11-21T06:53:47;94189.19;;;8.24;85.50
35778;BME280;21899;42.662;23.316;2023-11-21T06:56:19;94195.31;;;8.35;84.58
35778;BME280;21899;42.662;23.316;2023-11-21T06:58:45;94184.66;;;8.35;83.71
35778;BME280;21899;42.662;23.316;2023-11-21T07:01:12;94193.16;;;8.65;82.80
35778;BME280;21899;42.662;23.316;2023-11-21T07:03:38;94190.91;;;8.71;82.74
35778;BME280;21899;42.662;23.316;2023-11-21T07:06:04;94192.78;;;8.67;82.08
35778;BME280;21899;42.662;23.316;2023-11-21T07:08:29;94189.44;;;8.84;82.13
35778;BME280;21899;42.662;23.316;2023-11-21T07:10:55;94187.91;;;8.90;81.33
35778;BME280;21899;42.662;23.316;2023-11-21T07:13:20;94179.03;;;8.54;82.34
35778;BME280;21899;42.662;23.316;2023-11-21T07:15:46;94174.88;;;8.64;82.24
35778;BME280;21899;42.662;23.316;2023-11-21T07:18:12;94179.13;;;8.82;81.36
35778;BME280;21899;42.662;23.316;2023-11-21T07:20:38;94177.56;;;8.78;80.79
35778;BME280;21899;42.662;23.316;2023-11-21T07:23:03;94177.59;;;8.85;80.49
35778;BME280;21899;42.662;23.316;2023-11-21T07:25:29;94195.53;;;8.88;80.96
35778;BME280;21899;42.662;23.316;2023-11-21T07:27:55;94187.16;;;9.00;80.32
35778;BME280;21899;42.662;23.316;2023-11-21T07:30:21;94188.63;;;8.76;79.93
35778;BME280;21899;42.662;23.316;2023-11-21T07:32:48;94183.25;;;8.59;80.92
35778;BME280;21899;42.662;23.316;2023-11-21T07:35:13;94180.22;;;8.67;81.38
35778;BME280;21899;42.662;23.316;2023-11-21T07:37:39;94182.06;;;8.56;80.56
35778;BME280;21899;42.662;23.316;2023-11-21T07:40:06;94188.59;;;8.62;81.26
35778;BME280;21899;42.662;23.316;2023-11-21T07:42:34;94181.72;;;8.65;80.73
35778;BME280;21899;42.662;23.316;2023-11-21T07:44:59;94184.81;;;8.74;80.76
35778;BME280;21899;42.662;23.316;2023-11-21T07:47:25;94183.63;;;8.68;80.98
35778;BME280;21899;42.662;23.316;2023-11-21T07:49:53;94182.16;;;8.84;80.44
35778;BME280;21899;42.662;23.316;2023-11-21T07:52:21;94179.13;;;8.79;80.79
35778;BME280;21899;42.662;23.316;2023-11-21T07:54:46;94187.88;;;8.72;81.41
35778;BME280;21899;42.662;23.316;2023-11-21T07:57:12;94180.59;;;8.73;81.39
35778;BME280;21899;42.662;23.316;2023-11-21T07:59:41;94174.94;;;8.88;80.50
35778;BME280;21899;42.662;23.316;2023-11-21T08:02:07;94173.44;;;9.05;79.90
35778;BME280;21899;42.662;23.316;2023-11-21T08:04:33;94153.59;;;9.06;80.03
35778;BME280;21899;42.662;23.316;2023-11-21T08:07:00;94166.63;;;9.25;78.80
35778;BME280;21899;42.662;23.316;2023-11-21T08:09:27;94171.19;;;9.32;78.19
35778;BME280;21899;42.662;23.316;2023-11-21T08:11:52;94155.94;;;9.57;77.93
35778;BME280;21899;42.662;23.316;2023-11-21T08:14:18;94157.47;;;9.68;76.34
35778;BME280;21899;42.662;23.316;2023-11-21T08:16:44;94155.94;;;9.50;77.68
35778;BME280;21899;42.662;23.316;2023-11-21T08:19:10;94168.13;;;9.79;77.10
35778;BME280;21899;42.662;23.316;2023-11-21T08:21:36;94155.13;;;10.09;76.24
35778;BME280;21899;42.662;23.316;2023-11-21T08:24:03;94153.91;;;10.31;74.86
35778;BME280;21899;42.662;23.316;2023-11-21T08:26:29;94155.09;;;10.19;73.63
35778;BME280;21899;42.662;23.316;2023-11-21T08:28:55;94147.41;;;10.28;74.06
35778;BME280;21899;42.662;23.316;2023-11-21T08:31:28;94153.06;;;10.55;72.05
35778;BME280;21899;42.662;23.316;2023-11-21T08:33:54;94167.91;;;10.67;71.34
35778;BME280;21899;42.662;23.316;2023-11-21T08:36:21;94158.69;;;10.78;70.98
35778;BME280;21899;42.662;23.316;2023-11-21T08:38:48;94160.63;;;10.74;70.28
35778;BME280;21899;42.662;23.316;2023-11-21T08:41:14;94155.63;;;10.76;69.52
35778;BME280;21899;42.662;23.316;2023-11-21T08:43:40;94160.16;;;10.86;68.92
35778;BME280;21899;42.662;23.316;2023-11-21T08:46:08;94154.47;;;10.81;69.87
35778;BME280;21899;42.662;23.316;2023-11-21T08:48:35;94150.72;;;10.68;69.14
35778;BME280;21899;42.662;23.316;2023-11-21T08:51:01;94146.53;;;10.60;70.53
35778;BME280;21899;42.662;23.316;2023-11-21T08:53:27;94142.69;;;10.64;69.90
35778;BME280;21899;42.662;23.316;2023-11-21T08:55:52;94145.00;;;10.66;69.48
35778;BME280;21899;42.662;23.316;2023-11-21T08:58:19;94149.84;;;10.88;69.34
35778;BME280;21899;42.662;23.316;2023-11-21T09:00:45;94132.50;;;11.07;67.47
35778;BME280;21899;42.662;23.316;2023-11-21T09:03:12;94127.94;;;11.04;66.34
35778;BME280;21899;42.662;23.316;2023-11-21T09:05:38;94119.84;;;11.11;66.51
35778;BME280;21899;42.662;23.316;2023-11-21T09:08:04;94120.06;;;11.34;65.96
35778;BME280;21899;42.662;23.316;2023-11-21T09:10:30;94103.91;;;11.44;64.78
35778;BME280;21899;42.662;23.316;2023-11-21T09:12:56;94086.38;;;11.33;66.39
35778;BME280;21899;42.662;23.316;2023-11-21T09:15:22;94086.66;;;11.45;65.77
35778;BME280;21899;42.662;23.316;2023-11-21T09:17:47;94081.56;;;11.61;65.15
35778;BME280;21899;42.662;23.316;2023-11-21T09:20:13;94092.38;;;11.92;64.46
35778;BME280;21899;42.662;23.316;2023-11-21T09:22:40;94090.22;;;12.13;63.36
35778;BME280;21899;42.662;23.316;2023-11-21T09:25:06;94084.22;;;12.02;60.97
35778;BME280;21899;42.662;23.316;2023-11-21T09:27:34;94068.50;;;11.67;62.46
35778;BME280;21899;42.662;23.316;2023-11-21T09:30:01;94072.13;;;11.87;61.56
35778;BME280;21899;42.662;23.316;2023-11-21T09:32:26;94058.13;;;12.06;61.98
35778;BME280;21899;42.662;23.316;2023-11-21T09:34:52;94047.53;;;12.26;59.88
35778;BME280;21899;42.662;23.316;2023-11-21T09:37:19;94043.84;;;12.16;59.29
35778;BME280;21899;42.662;23.316;2023-11-21T09:39:44;94051.22;;;12.05;59.23
35778;BME280;21899;42.662;23.316;2023-11-21T09:42:17;94038.72;;;12.25;59.06
35778;BME280;21899;42.662;23.316;2023-11-21T09:45:03;94030.28;;;12.27;58.56
35778;BME280;21899;42.662;23.316;2023-11-21T09:47:30;94015.81;;;12.47;57.83
35778;BME280;21899;42.662;23.316;2023-11-21T09:49:56;94014.22;;;12.23;58.42
35778;BME280;21899;42.662;23.316;2023-11-21T09:52:25;94018.47;;;12.21;58.90
35778;BME280;21899;42.662;23.316;2023-11-21T09:54:52;94005.50;;;12.46;58.85
35778;BME280;21899;42.662;23.316;2023-11-21T09:57:20;93998.75;;;12.34;58.36
35778;BME280;21899;42.662;23.316;2023-11-21T09:59:46;94004.31;;;12.73;57.71
35778;BME280;21899;42.662;23.316;2023-11-21T10:02:16;93992.41;;;13.01;56.95
35778;BME280;21899;42.662;23.316;2023-11-21T10:04:44;93982.06;;;13.23;56.56
35778;BME280;21899;42.662;23.316;2023-11-21T10:07:11;93988.31;;;13.59;55.49
35778;BME280;21899;42.662;23.316;2023-11-21T10:09:38;93984.91;;;13.78;54.71
35778;BME280;21899;42.662;23.316;2023-11-21T10:12:05;93974.75;;;13.46;52.81
35778;BME280;21899;42.662;23.316;2023-11-21T10:14:35;93989.81;;;13.63;52.37
35778;BME280;21899;42.662;23.316;2023-11-21T10:17:02;93980.69;;;13.57;52.40
35778;BME280;21899;42.662;23.316;2023-11-21T10:19:29;93977.88;;;13.84;51.00
35778;BME280;21899;42.662;23.316;2023-11-21T10:21:55;93966.44;;;13.80;51.26
35778;BME280;21899;42.662;23.316;2023-11-21T10:24:22;93971.50;;;14.13;50.49
35778;BME280;21899;42.662;23.316;2023-11-21T10:26:48;93967.84;;;14.23;50.07
35778;BME280;21899;42.662;23.316;2023-11-21T10:29:14;93965.09;;;14.07;50.37
35778;BME280;21899;42.662;23.316;2023-11-21T10:31:42;93966.81;;;14.17;50.29
35778;BME280;21899;42.662;23.316;2023-11-21T10:34:18;93965.31;;;14.36;50.73
35778;BME280;21899;42.662;23.316;2023-11-21T10:36:44;93953.94;;;14.45;50.68
35778;BME280;21899;42.662;23.316;2023-11-21T10:39:14;93953.19;;;14.44;49.68
35778;BME280;21899;42.662;23.316;2023-11-21T10:41:44;93950.91;;;14.23;50.86
35778;BME280;21899;42.662;23.316;2023-11-21T10:44:10;93944.34;;;14.44;50.31
35778;BME280;21899;42.662;23.316;2023-11-21T10:46:36;93946.13;;;14.50;50.30
35778;BME280;21899;42.662;23.316;2023-11-21T10:49:02;93936.97;;;14.64;49.63
35778;BME280;21899;42.662;23.316;2023-11-21T10:51:27;93936.63;;;14.46;49.76
35778;BME280;21899;42.662;23.316;2023-11-21T10:53:53;93941.72;;;14.40;50.20
35778;BME280;21899;42.662;23.316;2023-11-21T10:56:23;93937.63;;;14.35;50.29
35778;BME280;21899;42.662;23.316;2023-11-21T10:58:49;93927.94;;;14.18;50.64
35778;BME280;21899;42.662;23.316;2023-11-21T11:01:17;93922.97;;;14.17;50.56
35778;BME280;21899;42.662;23.316;2023-11-21T11:03:44;93929.25;;;14.30;50.58
35778;BME280;21899;42.662;23.316;2023-11-21T11:06:10;93928.41;;;14.33;50.30
35778;BME280;21899;42.662;23.316;2023-11-21T11:08:39;93932.44;;;14.25;49.49
35778;BME280;21899;42.662;23.316;2023-11-21T11:11:05;93922.03;;;14.07;49.98
35778;BME280;21899;42.662;23.316;2023-11-21T11:13:31;93914.47;;;14.02;50.05
35778;BME280;21899;42.662;23.316;2023-11-21T11:16:00;93921.41;;;14.00;49.69
35778;BME280;21899;42.662;23.316;2023-11-21T11:18:32;93917.06;;;14.25;49.25
35778;BME280;21899;42.662;23.316;2023-11-21T11:21:21;93908.63;;;14.23;49.38
35778;BME280;21899;42.662;23.316;2023-11-21T11:24:04;93885.09;;;14.27;49.31
35778;BME280;21899;42.662;23.316;2023-11-21T11:30:12;93882.03;;;14.09;50.73
35778;BME280;21899;42.662;23.316;2023-11-21T11:35:36;93881.66;;;14.43;49.22
35778;BME280;21899;42.662;23.316;2023-11-21T11:38:03;93882.84;;;14.42;49.66
35778;BME280;21899;42.662;23.316;2023-11-21T11:40:45;93878.97;;;14.43;48.93
35778;BME280;21899;42.662;23.316;2023-11-21T11:43:10;93877.38;;;14.29;50.09
35778;BME280;21899;42.662;23.316;2023-11-21T11:45:37;93881.66;;;14.27;50.23
35778;BME280;21899;42.662;23.316;2023-11-21T11:48:07;93891.81;;;14.19;51.09
35778;BME280;21899;42.662;23.316;2023-11-21T11:50:33;93895.00;;;13.95;53.22
35778;BME280;21899;42.662;23.316;2023-11-21T11:53:17;93898.78;;;13.62;52.90
35778;BME280;21899;42.662;23.316;2023-11-21T11:55:45;93899.53;;;13.43;53.71
35778;BME280;21899;42.662;23.316;2023-11-21T11:58:10;93894.16;;;13.43;54.05
35778;BME280;21899;42.662;23.316;2023-11-21T12:00:36;93881.13;;;13.41;54.67
35778;BME280;21899;42.662;23.316;2023-11-21T12:03:07;93881.47;;;13.24;54.96
35778;BME280;21899;42.662;23.316;2023-11-21T12:05:34;93883.59;;;12.89;57.10
35778;BME280;21899;42.662;23.316;2023-11-21T12:08:11;93894.22;;;12.96;57.97
35778;BME280;21899;42.662;23.316;2023-11-21T12:10:38;93887.69;;;12.74;60.55
35778;BME280;21899;42.662;23.316;2023-11-21T12:13:09;93895.38;;;12.26;66.99
35778;BME280;21899;42.662;23.316;2023-11-21T12:15:36;93905.50;;;11.85;69.08
35778;BME280;21899;42.662;23.316;2023-11-21T12:18:02;93898.09;;;11.66;72.52
35778;BME280;21899;42.662;23.316;2023-11-21T12:20:28;93902.13;;;11.47;74.93
35778;BME280;21899;42.662;23.316;2023-11-21T12:22:55;93898.78;;;11.40;76.55
35778;BME280;21899;42.662;23.316;2023-11-21T12:25:23;93875.72;;;11.46;77.61
35778;BME280;21899;42.662;23.316;2023-11-21T12:27:51;93876.97;;;11.38;78.17
35778;BME280;21899;42.662;23.316;2023-11-21T12:30:18;93888.75;;;11.44;78.92
35778;BME280;21899;42.662;23.316;2023-11-21T12:32:47;93890.94;;;11.52;80.15
35778;BME280;21899;42.662;23.316;2023-11-21T12:35:13;93891.31;;;11.54;80.22
35778;BME280;21899;42.662;23.316;2023-11-21T12:37:40;93893.69;;;11.15;81.77
35778;BME280;21899;42.662;23.316;2023-11-21T12:40:08;93887.50;;;11.22;82.92
35778;BME280;21899;42.662;23.316;2023-11-21T12:42:38;93884.72;;;11.29;82.35
35778;BME280;21899;42.662;23.316;2023-11-21T12:50:12;93876.88;;;11.45;82.32
35778;BME280;21899;42.662;23.316;2023-11-21T12:52:44;93868.44;;;11.46;80.19
35778;BME280;21899;42.662;23.316;2023-11-21T12:55:17;93853.63;;;11.38;80.04
35778;BME280;21899;42.662;23.316;2023-11-21T12:57:44;93865.63;;;11.57;80.00
35778;BME280;21899;42.662;23.316;2023-11-21T13:00:11;93850.63;;;11.63;79.74
35778;BME280;21899;42.662;23.316;2023-11-21T13:02:41;93854.81;;;11.67;79.03
35778;BME280;21899;42.662;23.316;2023-11-21T13:05:08;93850.84;;;11.75;78.52
35778;BME280;21899;42.662;23.316;2023-11-21T13:07:44;93830.03;;;11.87;77.38